sensor_id;sensor_type;location;lat;lon;timestamp;pressure;altitude;pressure_sealevel;temperature;humidity
75146;BME280;63641;46.526;24.612;2023-02-03T00:01:45;97235.50;;;1.77;76.38
75146;BME280;63641;46.526;24.612;2023-02-03T00:04:12;97240.59;;;1.79;76.20
75146;BME280;63641;46.526;24.612;2023-02-03T00:06:39;97231.66;;;1.73;76.27
75146;BME280;63641;46.526;24.612;2023-02-03T00:09:06;97229.44;;;1.70;76.48
75146;BME280;63641;46.526;24.612;2023-02-03T00:11:33;97249.03;;;1.76;76.17
75146;BME280;63641;46.526;24.612;2023-02-03T00:13:59;97260.06;;;1.79;75.93
75146;BME280;63641;46.526;24.612;2023-02-03T00:16:26;97256.00;;;1.77;76.10
75146;BME280;63641;46.526;24.612;2023-02-03T00:18:53;97259.72;;;1.76;76.31
75146;BME280;63641;46.526;24.612;2023-02-03T00:21:20;97265.84;;;1.76;75.91
75146;BME280;63641;46.526;24.612;2023-02-03T00:23:46;97266.91;;;1.75;76.24
75146;BME280;63641;46.526;24.612;2023-02-03T00:26:15;97266.53;;;1.72;76.17
75146;BME280;63641;46.526;24.612;2023-02-03T00:28:42;97273.50;;;1.73;76.13
75146;BME280;63641;46.526;24.612;2023-02-03T00:31:16;97250.69;;;1.58;75.90
75146;BME280;63641;46.526;24.612;2023-02-03T00:33:43;97270.47;;;1.69;75.74
75146;BME280;63641;46.526;24.612;2023-02-03T00:36:10;97262.09;;;1.65;76.22
75146;BME280;63641;46.526;24.612;2023-02-03T00:38:37;97271.50;;;1.68;76.10
75146;BME280;63641;46.526;24.612;2023-02-03T00:41:05;97275.22;;;1.67;76.09
75146;BME280;63641;46.526;24.612;2023-02-03T00:43:32;97284.03;;;1.67;75.89
75146;BME280;63641;46.526;24.612;2023-02-03T00:45:59;97287.50;;;1.68;76.20
75146;BME280;63641;46.526;24.612;2023-02-03T00:48:26;97280.31;;;1.68;76.07
75146;BME280;63641;46.526;24.612;2023-02-03T00:50:53;97272.19;;;1.63;76.03
75146;BME280;63641;46.526;24.612;2023-02-03T00:53:20;97276.13;;;1.61;75.68
75146;BME280;63641;46.526;24.612;2023-02-03T00:55:47;97283.06;;;1.62;75.84
75146;BME280;63641;46.526;24.612;2023-02-03T00:58:13;97270.97;;;1.48;75.61
75146;BME280;63641;46.526;24.612;2023-02-03T01:00:40;97295.84;;;1.60;75.99
75146;BME280;63641;46.526;24.612;2023-02-03T01:03:07;97295.47;;;1.56;75.86
75146;BME280;63641;46.526;24.612;2023-02-03T01:05:33;97300.56;;;1.58;75.94
75146;BME280;63641;46.526;24.612;2023-02-03T01:08:00;97294.28;;;1.52;75.98
75146;BME280;63641;46.526;24.612;2023-02-03T01:10:28;97296.63;;;1.60;75.75
75146;BME280;63641;46.526;24.612;2023-02-03T01:12:55;97294.22;;;1.59;75.29
75146;BME280;63641;46.526;24.612;2023-02-03T01:15:21;97290.25;;;1.61;75.72
75146;BME280;63641;46.526;24.612;2023-02-03T01:17:48;97284.19;;;1.54;75.54
75146;BME280;63641;46.526;24.612;2023-02-03T01:20:16;97295.09;;;1.53;75.71
75146;BME280;63641;46.526;24.612;2023-02-03T01:22:43;97304.59;;;1.49;75.79
75146;BME280;63641;46.526;24.612;2023-02-03T01:25:09;97280.75;;;1.35;75.70
75146;BME280;63641;46.526;24.612;2023-02-03T01:27:36;97309.25;;;1.53;75.41
75146;BME280;63641;46.526;24.612;2023-02-03T01:30:03;97310.06;;;1.54;75.69
75146;BME280;63641;46.526;24.612;2023-02-03T01:32:30;97310.66;;;1.56;75.43
75146;BME280;63641;46.526;24.612;2023-02-03T01:34:56;97297.53;;;1.54;75.58
75146;BME280;63641;46.526;24.612;2023-02-03T01:37:23;97277.41;;;1.40;75.36
75146;BME280;63641;46.526;24.612;2023-02-03T01:39:50;97300.19;;;1.54;75.31
75146;BME280;63641;46.526;24.612;2023-02-03T01:42:16;97288.22;;;1.45;75.00
75146;BME280;63641;46.526;24.612;2023-02-03T01:44:49;97302.72;;;1.49;75.13
75146;BME280;63641;46.526;24.612;2023-02-03T01:52:22;97322.72;;;1.40;75.14
75146;BME280;63641;46.526;24.612;2023-02-03T01:54:51;97318.28;;;1.34;75.08
75146;BME280;63641;46.526;24.612;2023-02-03T01:57:26;97322.88;;;1.27;75.19
75146;BME280;63641;46.526;24.612;2023-02-03T01:59:56;97315.09;;;1.25;74.91
75146;BME280;63641;46.526;24.612;2023-02-03T02:02:24;97326.41;;;1.20;74.95
75146;BME280;63641;46.526;24.612;2023-02-03T02:05:02;97328.66;;;1.24;74.93
75146;BME280;63641;46.526;24.612;2023-02-03T02:07:31;97333.41;;;1.22;74.72
75146;BME280;63641;46.526;24.612;2023-02-03T02:09:58;97322.13;;;1.19;74.49
75146;BME280;63641;46.526;24.612;2023-02-03T02:12:25;97328.66;;;1.24;74.66
75146;BME280;63641;46.526;24.612;2023-02-03T02:14:52;97327.22;;;1.21;74.44
75146;BME280;63641;46.526;24.612;2023-02-03T02:18:02;97333.16;;;1.23;74.64
75146;BME280;63641;46.526;24.612;2023-02-03T02:29:51;97342.72;;;1.12;74.23
75146;BME280;63641;46.526;24.612;2023-02-03T02:45:41;97380.88;;;1.06;74.23
75146;BME280;63641;46.526;24.612;2023-02-03T02:48:16;97365.34;;;1.03;74.22
75146;BME280;63641;46.526;24.612;2023-02-03T02:50:48;97384.97;;;1.09;74.07
75146;BME280;63641;46.526;24.612;2023-02-03T02:53:20;97385.41;;;1.06;74.52
75146;BME280;63641;46.526;24.612;2023-02-03T02:55:48;97390.53;;;1.07;74.27
75146;BME280;63641;46.526;24.612;2023-02-03T02:58:18;97397.47;;;1.08;74.29
75146;BME280;63641;46.526;24.612;2023-02-03T03:00:46;97395.03;;;1.07;74.46
75146;BME280;63641;46.526;24.612;2023-02-03T03:03:16;97398.28;;;1.09;74.50
75146;BME280;63641;46.526;24.612;2023-02-03T03:06:08;97401.78;;;1.09;74.14
75146;BME280;63641;46.526;24.612;2023-02-03T03:09:01;97415.03;;;1.16;74.23
75146;BME280;63641;46.526;24.612;2023-02-03T03:11:32;97419.56;;;1.15;74.15
75146;BME280;63641;46.526;24.612;2023-02-03T03:14:00;97421.47;;;1.08;74.24
75146;BME280;63641;46.526;24.612;2023-02-03T03:16:31;97418.81;;;1.08;74.07
75146;BME280;63641;46.526;24.612;2023-02-03T03:19:09;97432.88;;;1.15;74.05
75146;BME280;63641;46.526;24.612;2023-02-03T03:21:42;97427.84;;;1.07;74.00
75146;BME280;63641;46.526;24.612;2023-02-03T03:24:14;97425.75;;;1.09;73.92
75146;BME280;63641;46.526;24.612;2023-02-03T03:27:01;97441.31;;;1.12;74.17
75146;BME280;63641;46.526;24.612;2023-02-03T03:29:51;97437.03;;;1.11;73.84
75146;BME280;63641;46.526;24.612;2023-02-03T03:32:20;97447.84;;;1.16;74.34
75146;BME280;63641;46.526;24.612;2023-02-03T03:34:47;97439.69;;;1.11;74.20
75146;BME280;63641;46.526;24.612;2023-02-03T03:40:00;97424.78;;;1.04;74.03
75146;BME280;63641;46.526;24.612;2023-02-03T03:42:39;97442.78;;;1.08;74.20
75146;BME280;63641;46.526;24.612;2023-02-03T03:47:41;97436.06;;;0.99;73.90
75146;BME280;63641;46.526;24.612;2023-02-03T03:50:15;97448.97;;;1.02;73.92
75146;BME280;63641;46.526;24.612;2023-02-03T03:52:44;97451.63;;;1.02;74.02
75146;BME280;63641;46.526;24.612;2023-02-03T03:55:15;97451.88;;;1.01;74.01
75146;BME280;63641;46.526;24.612;2023-02-03T04:00:18;97441.69;;;0.91;73.97
75146;BME280;63641;46.526;24.612;2023-02-03T04:02:50;97463.00;;;0.91;73.77
75146;BME280;63641;46.526;24.612;2023-02-03T04:05:18;97469.13;;;0.91;74.06
75146;BME280;63641;46.526;24.612;2023-02-03T04:07:46;97467.91;;;0.94;73.84
75146;BME280;63641;46.526;24.612;2023-02-03T04:10:33;97469.94;;;0.92;74.04
75146;BME280;63641;46.526;24.612;2023-02-03T04:13:00;97473.44;;;0.92;74.07
75146;BME280;63641;46.526;24.612;2023-02-03T04:15:27;97467.34;;;0.85;73.94
75146;BME280;63641;46.526;24.612;2023-02-03T04:17:54;97473.50;;;0.86;73.83
75146;BME280;63641;46.526;24.612;2023-02-03T04:20:23;97478.16;;;0.90;73.95
75146;BME280;63641;46.526;24.612;2023-02-03T04:22:51;97470.22;;;0.84;73.81
75146;BME280;63641;46.526;24.612;2023-02-03T04:25:18;97500.28;;;0.91;73.73
75146;BME280;63641;46.526;24.612;2023-02-03T04:27:45;97498.44;;;0.91;73.83
75146;BME280;63641;46.526;24.612;2023-02-03T04:30:12;97490.69;;;0.90;73.56
75146;BME280;63641;46.526;24.612;2023-02-03T04:32:39;97495.72;;;0.98;73.73
75146;BME280;63641;46.526;24.612;2023-02-03T04:35:07;97494.13;;;0.97;73.62
75146;BME280;63641;46.526;24.612;2023-02-03T04:37:33;97496.94;;;1.02;73.40
75146;BME280;63641;46.526;24.612;2023-02-03T04:40:00;97498.59;;;1.03;73.20
75146;BME280;63641;46.526;24.612;2023-02-03T04:42:27;97502.22;;;1.09;73.22
75146;BME280;63641;46.526;24.612;2023-02-03T04:44:53;97512.22;;;1.13;73.07
75146;BME280;63641;46.526;24.612;2023-02-03T04:47:20;97511.78;;;1.16;72.93
75146;BME280;63641;46.526;24.612;2023-02-03T04:49:47;97509.50;;;1.20;73.30
75146;BME280;63641;46.526;24.612;2023-02-03T04:52:13;97502.94;;;1.23;73.02
75146;BME280;63641;46.526;24.612;2023-02-03T04:54:40;97500.72;;;1.19;73.12
75146;BME280;63641;46.526;24.612;2023-02-03T04:57:07;97497.63;;;1.23;73.28
75146;BME280;63641;46.526;24.612;2023-02-03T04:59:34;97509.47;;;1.27;73.15
75146;BME280;63641;46.526;24.612;2023-02-03T05:02:02;97513.59;;;1.23;73.16
75146;BME280;63641;46.526;24.612;2023-02-03T05:04:47;97514.47;;;1.16;73.10
75146;BME280;63641;46.526;24.612;2023-02-03T05:07:14;97524.09;;;1.17;73.12
75146;BME280;63641;46.526;24.612;2023-02-03T05:09:41;97534.34;;;1.14;72.83
75146;BME280;63641;46.526;24.612;2023-02-03T05:12:08;97535.00;;;1.09;72.88
75146;BME280;63641;46.526;24.612;2023-02-03T05:14:34;97534.81;;;1.11;73.28
75146;BME280;63641;46.526;24.612;2023-02-03T05:17:01;97530.72;;;1.08;73.14
75146;BME280;63641;46.526;24.612;2023-02-03T05:19:28;97532.34;;;1.09;73.12
75146;BME280;63641;46.526;24.612;2023-02-03T05:21:54;97534.59;;;1.12;72.86
75146;BME280;63641;46.526;24.612;2023-02-03T05:24:21;97527.63;;;1.11;73.06
75146;BME280;63641;46.526;24.612;2023-02-03T05:26:48;97530.28;;;1.11;72.70
75146;BME280;63641;46.526;24.612;2023-02-03T05:29:15;97520.66;;;1.10;72.75
75146;BME280;63641;46.526;24.612;2023-02-03T05:31:41;97505.59;;;0.98;72.62
75146;BME280;63641;46.526;24.612;2023-02-03T05:34:08;97529.88;;;1.14;72.82
75146;BME280;63641;46.526;24.612;2023-02-03T05:36:35;97540.97;;;1.11;72.72
75146;BME280;63641;46.526;24.612;2023-02-03T05:39:02;97549.38;;;1.08;72.77
75146;BME280;63641;46.526;24.612;2023-02-03T05:41:29;97534.28;;;0.95;72.81
75146;BME280;63641;46.526;24.612;2023-02-03T05:44:14;97545.72;;;1.03;72.62
75146;BME280;63641;46.526;24.612;2023-02-03T05:46:40;97530.78;;;0.95;72.71
75146;BME280;63641;46.526;24.612;2023-02-03T05:49:07;97546.41;;;0.91;72.37
75146;BME280;63641;46.526;24.612;2023-02-03T05:51:34;97550.31;;;0.89;72.46
75146;BME280;63641;46.526;24.612;2023-02-03T05:54:01;97551.97;;;0.83;72.69
75146;BME280;63641;46.526;24.612;2023-02-03T05:56:28;97553.44;;;0.79;72.51
75146;BME280;63641;46.526;24.612;2023-02-03T05:58:55;97560.63;;;0.79;72.57
75146;BME280;63641;46.526;24.612;2023-02-03T06:01:22;97553.28;;;0.74;72.59
75146;BME280;63641;46.526;24.612;2023-02-03T06:03:49;97560.81;;;0.77;72.55
75146;BME280;63641;46.526;24.612;2023-02-03T06:06:16;97556.09;;;0.79;72.37
75146;BME280;63641;46.526;24.612;2023-02-03T06:08:43;97558.53;;;0.81;72.20
75146;BME280;63641;46.526;24.612;2023-02-03T06:11:11;97567.31;;;0.88;72.20
75146;BME280;63641;46.526;24.612;2023-02-03T06:13:38;97564.66;;;0.88;71.84
75146;BME280;63641;46.526;24.612;2023-02-03T06:16:05;97566.72;;;0.86;71.75
75146;BME280;63641;46.526;24.612;2023-02-03T06:18:31;97583.50;;;0.93;71.88
75146;BME280;63641;46.526;24.612;2023-02-03T06:20:58;97581.66;;;0.93;71.99
75146;BME280;63641;46.526;24.612;2023-02-03T06:23:25;97578.16;;;0.93;71.75
75146;BME280;63641;46.526;24.612;2023-02-03T06:25:51;97570.75;;;0.95;71.53
75146;BME280;63641;46.526;24.612;2023-02-03T06:28:18;97576.28;;;1.00;71.43
75146;BME280;63641;46.526;24.612;2023-02-03T06:30:49;97583.41;;;1.06;71.25
75146;BME280;63641;46.526;24.612;2023-02-03T06:33:16;97571.53;;;1.02;71.23
75146;BME280;63641;46.526;24.612;2023-02-03T06:35:43;97587.72;;;1.07;71.31
75146;BME280;63641;46.526;24.612;2023-02-03T06:38:09;97575.41;;;1.06;71.33
75146;BME280;63641;46.526;24.612;2023-02-03T06:40:36;97574.44;;;1.01;71.10
75146;BME280;63641;46.526;24.612;2023-02-03T06:43:03;97589.19;;;1.03;71.15
75146;BME280;63641;46.526;24.612;2023-02-03T06:45:30;97584.28;;;1.00;71.19
75146;BME280;63641;46.526;24.612;2023-02-03T06:47:57;97577.75;;;0.96;71.04
75146;BME280;63641;46.526;24.612;2023-02-03T06:50:23;97580.59;;;0.94;71.25
75146;BME280;63641;46.526;24.612;2023-02-03T06:52:50;97579.41;;;0.90;71.07
75146;BME280;63641;46.526;24.612;2023-02-03T06:55:17;97590.22;;;0.95;71.21
75146;BME280;63641;46.526;24.612;2023-02-03T06:57:45;97603.34;;;0.97;71.12
75146;BME280;63641;46.526;24.612;2023-02-03T07:00:13;97606.19;;;1.02;70.70
75146;BME280;63641;46.526;24.612;2023-02-03T07:02:44;97599.19;;;1.08;70.69
75146;BME280;63641;46.526;24.612;2023-02-03T07:05:11;97600.19;;;1.13;70.50
75146;BME280;63641;46.526;24.612;2023-02-03T07:07:38;97601.81;;;1.14;70.51
75146;BME280;63641;46.526;24.612;2023-02-03T07:10:06;97614.28;;;1.20;70.16
75146;BME280;63641;46.526;24.612;2023-02-03T07:12:32;97614.91;;;1.23;70.46
75146;BME280;63641;46.526;24.612;2023-02-03T07:14:59;97617.72;;;1.28;70.10
75146;BME280;63641;46.526;24.612;2023-02-03T07:17:26;97611.81;;;1.26;69.90
75146;BME280;63641;46.526;24.612;2023-02-03T07:19:53;97619.53;;;1.34;69.79
75146;BME280;63641;46.526;24.612;2023-02-03T07:22:19;97624.88;;;1.34;69.62
75146;BME280;63641;46.526;24.612;2023-02-03T07:24:46;97617.91;;;1.33;69.67
75146;BME280;63641;46.526;24.612;2023-02-03T07:27:13;97614.63;;;1.31;69.41
75146;BME280;63641;46.526;24.612;2023-02-03T07:29:40;97622.97;;;1.41;69.49
75146;BME280;63641;46.526;24.612;2023-02-03T07:32:06;97623.56;;;1.43;69.39
75146;BME280;63641;46.526;24.612;2023-02-03T07:34:33;97625.03;;;1.39;69.24
75146;BME280;63641;46.526;24.612;2023-02-03T07:37:00;97620.47;;;1.46;69.16
75146;BME280;63641;46.526;24.612;2023-02-03T07:39:26;97619.66;;;1.45;68.93
75146;BME280;63641;46.526;24.612;2023-02-03T07:41:53;97624.97;;;1.52;68.70
75146;BME280;63641;46.526;24.612;2023-02-03T07:44:20;97615.16;;;1.46;68.63
75146;BME280;63641;46.526;24.612;2023-02-03T07:46:46;97637.69;;;1.50;68.70
75146;BME280;63641;46.526;24.612;2023-02-03T07:49:13;97631.53;;;1.50;68.67
75146;BME280;63641;46.526;24.612;2023-02-03T07:51:40;97632.34;;;1.50;68.67
75146;BME280;63641;46.526;24.612;2023-02-03T07:54:07;97631.75;;;1.48;68.79
75146;BME280;63641;46.526;24.612;2023-02-03T07:56:34;97636.81;;;1.56;68.21
75146;BME280;63641;46.526;24.612;2023-02-03T07:59:01;97629.06;;;1.55;68.61
75146;BME280;63641;46.526;24.612;2023-02-03T08:01:27;97632.16;;;1.52;68.11
75146;BME280;63641;46.526;24.612;2023-02-03T08:03:54;97630.72;;;1.49;68.00
75146;BME280;63641;46.526;24.612;2023-02-03T08:06:21;97622.97;;;1.41;68.00
75146;BME280;63641;46.526;24.612;2023-02-03T08:08:48;97633.66;;;1.41;68.02
75146;BME280;63641;46.526;24.612;2023-02-03T08:11:15;97635.88;;;1.44;67.82
75146;BME280;63641;46.526;24.612;2023-02-03T08:13:42;97635.50;;;1.40;67.68
75146;BME280;63641;46.526;24.612;2023-02-03T08:16:09;97635.50;;;1.40;67.56
75146;BME280;63641;46.526;24.612;2023-02-03T08:18:35;97632.88;;;1.34;67.76
75146;BME280;63641;46.526;24.612;2023-02-03T08:21:03;97637.56;;;1.38;67.96
75146;BME280;63641;46.526;24.612;2023-02-03T08:23:30;97640.22;;;1.38;67.65
75146;BME280;63641;46.526;24.612;2023-02-03T08:25:57;97636.75;;;1.38;67.62
75146;BME280;63641;46.526;24.612;2023-02-03T08:28:24;97622.63;;;1.31;67.46
75146;BME280;63641;46.526;24.612;2023-02-03T08:30:50;97638.19;;;1.34;67.80
75146;BME280;63641;46.526;24.612;2023-02-03T08:33:17;97639.19;;;1.39;67.72
75146;BME280;63641;46.526;24.612;2023-02-03T08:35:46;97639.41;;;1.38;67.29
75146;BME280;63641;46.526;24.612;2023-02-03T08:38:13;97637.16;;;1.35;67.22
75146;BME280;63641;46.526;24.612;2023-02-03T08:40:39;97637.97;;;1.35;67.26
75146;BME280;63641;46.526;24.612;2023-02-03T08:43:06;97645.94;;;1.42;66.84
75146;BME280;63641;46.526;24.612;2023-02-03T08:45:33;97650.03;;;1.44;66.85
75146;BME280;63641;46.526;24.612;2023-02-03T08:48:00;97636.09;;;1.42;66.74
75146;BME280;63641;46.526;24.612;2023-02-03T08:50:27;97642.22;;;1.43;66.76
75146;BME280;63641;46.526;24.612;2023-02-03T08:52:54;97644.91;;;1.43;66.82
75146;BME280;63641;46.526;24.612;2023-02-03T08:55:21;97630.38;;;1.39;66.56
75146;BME280;63641;46.526;24.612;2023-02-03T08:57:48;97634.47;;;1.41;66.49
75146;BME280;63641;46.526;24.612;2023-02-03T09:00:15;97636.91;;;1.43;66.47
75146;BME280;63641;46.526;24.612;2023-02-03T09:02:42;97630.38;;;1.39;66.53
75146;BME280;63641;46.526;24.612;2023-02-03T09:05:09;97624.44;;;1.37;66.69
75146;BME280;63641;46.526;24.612;2023-02-03T09:07:36;97632.00;;;1.40;66.37
75146;BME280;63641;46.526;24.612;2023-02-03T09:10:02;97638.97;;;1.41;66.28
75146;BME280;63641;46.526;24.612;2023-02-03T09:12:29;97634.06;;;1.38;66.46
75146;BME280;63641;46.526;24.612;2023-02-03T09:14:58;97627.31;;;1.35;66.63
75146;BME280;63641;46.526;24.612;2023-02-03T09:17:25;97631.41;;;1.38;66.70
75146;BME280;63641;46.526;24.612;2023-02-03T09:19:52;97624.59;;;1.42;66.36
75146;BME280;63641;46.526;24.612;2023-02-03T09:22:19;97619.66;;;1.45;66.11
75146;BME280;63641;46.526;24.612;2023-02-03T09:24:45;97625.78;;;1.53;66.21
75146;BME280;63641;46.526;24.612;2023-02-03T09:27:14;97637.22;;;1.60;65.71
75146;BME280;63641;46.526;24.612;2023-02-03T09:29:40;97630.25;;;1.59;65.25
75146;BME280;63641;46.526;24.612;2023-02-03T09:32:07;97630.63;;;1.62;65.19
75146;BME280;63641;46.526;24.612;2023-02-03T09:34:36;97632.66;;;1.67;65.02
75146;BME280;63641;46.526;24.612;2023-02-03T09:37:03;97625.88;;;1.64;65.02
75146;BME280;63641;46.526;24.612;2023-02-03T09:39:30;97624.78;;;1.72;65.06
75146;BME280;63641;46.526;24.612;2023-02-03T09:45:21;97622.69;;;1.81;64.44
75146;BME280;63641;46.526;24.612;2023-02-03T09:47:46;97618.69;;;1.90;64.80
75146;BME280;63641;46.526;24.612;2023-02-03T09:50:24;97614.56;;;1.94;64.48
75146;BME280;63641;46.526;24.612;2023-02-03T09:52:53;97612.56;;;1.89;64.38
75146;BME280;63641;46.526;24.612;2023-02-03T09:58:07;97616.59;;;1.74;63.98
75146;BME280;63641;46.526;24.612;2023-02-03T10:00:47;97615.97;;;1.72;64.08
75146;BME280;63641;46.526;24.612;2023-02-03T10:09:17;97615.41;;;1.69;64.19
75146;BME280;63641;46.526;24.612;2023-02-03T10:15:47;97614.03;;;1.60;63.75
75146;BME280;63641;46.526;24.612;2023-02-03T10:18:08;97616.03;;;1.65;64.05
75146;BME280;63641;46.526;24.612;2023-02-03T10:26:04;97601.66;;;1.91;63.63
75146;BME280;63641;46.526;24.612;2023-02-03T10:28:37;97593.81;;;1.96;63.33
75146;BME280;63641;46.526;24.612;2023-02-03T10:31:16;97595.81;;;2.01;63.40
75146;BME280;63641;46.526;24.612;2023-02-03T10:33:45;97599.53;;;2.00;63.23
75146;BME280;63641;46.526;24.612;2023-02-03T10:36:30;97603.03;;;2.00;63.42
75146;BME280;63641;46.526;24.612;2023-02-03T10:39:06;97599.53;;;2.00;63.35
75146;BME280;63641;46.526;24.612;2023-02-03T10:41:36;97600.13;;;2.02;63.40
75146;BME280;63641;46.526;24.612;2023-02-03T10:44:06;97607.25;;;2.08;63.51
75146;BME280;63641;46.526;24.612;2023-02-03T10:46:37;97603.97;;;2.06;63.41
75146;BME280;63641;46.526;24.612;2023-02-03T10:49:05;97602.41;;;1.98;62.94
75146;BME280;63641;46.526;24.612;2023-02-03T10:51:37;97595.56;;;1.84;63.30
75146;BME280;63641;46.526;24.612;2023-02-03T10:54:30;97601.00;;;1.96;63.21
75146;BME280;63641;46.526;24.612;2023-02-03T10:57:09;97593.66;;;1.91;62.99
75146;BME280;63641;46.526;24.612;2023-02-03T10:59:41;97595.44;;;1.97;63.20
75146;BME280;63641;46.526;24.612;2023-02-03T11:02:13;97596.88;;;2.00;63.41
75146;BME280;63641;46.526;24.612;2023-02-03T11:04:46;97575.56;;;1.93;63.21
75146;BME280;63641;46.526;24.612;2023-02-03T11:07:25;97587.16;;;2.05;63.45
75146;BME280;63641;46.526;24.612;2023-02-03T11:09:52;97592.00;;;2.15;63.25
75146;BME280;63641;46.526;24.612;2023-02-03T11:12:19;97586.97;;;2.25;62.84
75146;BME280;63641;46.526;24.612;2023-02-03T11:14:50;97588.53;;;2.33;62.99
75146;BME280;63641;46.526;24.612;2023-02-03T11:17:25;97577.84;;;2.33;63.03
75146;BME280;63641;46.526;24.612;2023-02-03T11:20:03;97581.34;;;2.33;62.62
75146;BME280;63641;46.526;24.612;2023-02-03T11:22:39;97580.53;;;2.33;62.93
75146;BME280;63641;46.526;24.612;2023-02-03T11:25:24;97574.56;;;2.31;62.67
75146;BME280;63641;46.526;24.612;2023-02-03T11:27:54;97574.13;;;2.34;62.67
75146;BME280;63641;46.526;24.612;2023-02-03T11:30:28;97571.22;;;2.35;62.45
75146;BME280;63641;46.526;24.612;2023-02-03T11:33:01;97568.34;;;2.37;62.44
75146;BME280;63641;46.526;24.612;2023-02-03T11:35:29;97563.16;;;2.42;62.66
75146;BME280;63641;46.526;24.612;2023-02-03T11:37:59;97562.34;;;2.41;62.46
75146;BME280;63641;46.526;24.612;2023-02-03T11:48:15;97544.88;;;2.57;61.80
75146;BME280;63641;46.526;24.612;2023-02-03T11:56:40;97543.75;;;2.65;61.78
75146;BME280;63641;46.526;24.612;2023-02-03T12:08:30;97521.50;;;2.71;61.30
75146;BME280;63641;46.526;24.612;2023-02-03T12:13:28;97505.94;;;3.10;60.54
75146;BME280;63641;46.526;24.612;2023-02-03T12:21:55;97501.00;;;3.84;59.25
75146;BME280;63641;46.526;24.612;2023-02-03T12:24:48;97496.81;;;3.88;58.63
75146;BME280;63641;46.526;24.612;2023-02-03T12:30:20;97496.72;;;3.83;58.61
75146;BME280;63641;46.526;24.612;2023-02-03T12:32:52;97488.66;;;3.71;58.62
75146;BME280;63641;46.526;24.612;2023-02-03T12:36:04;97489.63;;;3.65;58.76
75146;BME280;63641;46.526;24.612;2023-02-03T12:47:41;97480.66;;;3.36;59.03
75146;BME280;63641;46.526;24.612;2023-02-03T12:53:02;97481.56;;;3.53;58.84
75146;BME280;63641;46.526;24.612;2023-02-03T12:58:02;97468.53;;;3.45;58.79
75146;BME280;63641;46.526;24.612;2023-02-03T13:00:44;97463.53;;;3.37;58.66
75146;BME280;63641;46.526;24.612;2023-02-03T13:03:21;97458.41;;;3.24;58.62
75146;BME280;63641;46.526;24.612;2023-02-03T13:08:59;97466.06;;;3.08;58.78
75146;BME280;63641;46.526;24.612;2023-02-03T13:11:33;97463.84;;;3.05;58.83
75146;BME280;63641;46.526;24.612;2023-02-03T13:14:18;97446.19;;;3.04;58.78
75146;BME280;63641;46.526;24.612;2023-02-03T13:16:54;97447.47;;;3.13;58.78
75146;BME280;63641;46.526;24.612;2023-02-03T13:19:28;97449.72;;;3.28;58.88
75146;BME280;63641;46.526;24.612;2023-02-03T13:22:00;97435.28;;;3.41;58.65
75146;BME280;63641;46.526;24.612;2023-02-03T13:24:28;97439.47;;;3.49;58.30
75146;BME280;63641;46.526;24.612;2023-02-03T13:27:06;97431.44;;;3.49;58.32
75146;BME280;63641;46.526;24.612;2023-02-03T13:29:57;97420.19;;;3.47;58.25
75146;BME280;63641;46.526;24.612;2023-02-03T13:32:37;97423.66;;;3.47;58.32
75146;BME280;63641;46.526;24.612;2023-02-03T13:38:23;97424.59;;;3.41;58.37
75146;BME280;63641;46.526;24.612;2023-02-03T13:43:48;97421.69;;;3.54;58.25
75146;BME280;63641;46.526;24.612;2023-02-03T13:46:24;97418.06;;;3.60;58.09
75146;BME280;63641;46.526;24.612;2023-02-03T13:48:53;97418.75;;;3.68;58.06
75146;BME280;63641;46.526;24.612;2023-02-03T13:51:24;97411.41;;;3.75;57.95
75146;BME280;63641;46.526;24.612;2023-02-03T13:54:24;97400.22;;;3.78;57.20
75146;BME280;63641;46.526;24.612;2023-02-03T13:57:19;97398.50;;;3.72;57.03
75146;BME280;63641;46.526;24.612;2023-02-03T13:59:46;97388.28;;;3.57;57.19
75146;BME280;63641;46.526;24.612;2023-02-03T14:07:38;97380.75;;;3.54;56.53
75146;BME280;63641;46.526;24.612;2023-02-03T14:20:54;97353.88;;;3.37;56.79
75146;BME280;63641;46.526;24.612;2023-02-03T14:23:25;97351.66;;;3.34;56.35
75146;BME280;63641;46.526;24.612;2023-02-03T14:25:57;97344.59;;;3.28;56.68
75146;BME280;63641;46.526;24.612;2023-02-03T14:28:45;97344.91;;;3.31;56.80
75146;BME280;63641;46.526;24.612;2023-02-03T14:31:23;97341.44;;;3.31;56.54
75146;BME280;63641;46.526;24.612;2023-02-03T14:33:54;97339.25;;;3.28;56.58
75146;BME280;63641;46.526;24.612;2023-02-03T14:36:34;97329.59;;;3.27;56.87
75146;BME280;63641;46.526;24.612;2023-02-03T14:42:06;97333.31;;;3.26;56.46
75146;BME280;63641;46.526;24.612;2023-02-03T14:45:28;97332.72;;;3.24;56.62
75146;BME280;63641;46.526;24.612;2023-02-03T14:59:40;97311.13;;;3.02;57.48
75146;BME280;63641;46.526;24.612;2023-02-03T15:02:12;97310.09;;;3.03;57.55
75146;BME280;63641;46.526;24.612;2023-02-03T15:04:40;97296.25;;;2.94;57.82
75146;BME280;63641;46.526;24.612;2023-02-03T15:07:07;97300.06;;;2.98;57.72
75146;BME280;63641;46.526;24.612;2023-02-03T15:09:42;97291.75;;;2.95;57.46
75146;BME280;63641;46.526;24.612;2023-02-03T15:12:19;97291.38;;;2.91;57.42
75146;BME280;63641;46.526;24.612;2023-02-03T15:14:48;97288.38;;;2.87;57.68
75146;BME280;63641;46.526;24.612;2023-02-03T15:17:27;97291.84;;;2.88;57.91
75146;BME280;63641;46.526;24.612;2023-02-03T15:19:54;97288.00;;;2.84;58.44
75146;BME280;63641;46.526;24.612;2023-02-03T15:22:26;97278.81;;;2.80;58.65
75146;BME280;63641;46.526;24.612;2023-02-03T15:24:58;97277.19;;;2.79;58.80
75146;BME280;63641;46.526;24.612;2023-02-03T15:27:27;97271.50;;;2.75;59.29
75146;BME280;63641;46.526;24.612;2023-02-03T15:29:54;97267.91;;;2.70;59.20
75146;BME280;63641;46.526;24.612;2023-02-03T15:32:32;97260.34;;;2.66;59.65
75146;BME280;63641;46.526;24.612;2023-02-03T15:35:02;97255.72;;;2.62;59.99
75146;BME280;63641;46.526;24.612;2023-02-03T15:37:57;97260.72;;;2.58;60.01
75146;BME280;63641;46.526;24.612;2023-02-03T15:40:27;97257.91;;;2.53;60.61
75146;BME280;63641;46.526;24.612;2023-02-03T15:43:18;97239.31;;;2.47;60.32